createdAt,value
2022-11-12T00:00:35.118Z,89.36
2022-11-12T00:05:50.467Z,89.18
2022-11-12T00:10:54.595Z,89.30
2022-11-12T00:15:58.663Z,89.54
2022-11-12T00:21:02.484Z,89.55
2022-11-12T00:26:06.714Z,89.30
2022-11-12T00:31:12.354Z,88.23
2022-11-12T00:36:16.001Z,88.54
2022-11-12T00:41:19.478Z,89.08
2022-11-12T00:46:23.224Z,89.78
2022-11-12T00:51:26.833Z,89.79
2022-11-12T00:56:35.366Z,88.64
2022-11-12T01:01:39.930Z,88.46
2022-11-12T01:06:44.940Z,89.16
2022-11-12T01:11:48.744Z,88.79
2022-11-12T01:16:52.304Z,88.61
2022-11-12T01:21:56.335Z,89.09
2022-11-12T01:27:00.271Z,90.20
2022-11-12T01:32:04.505Z,91.44
2022-11-12T01:37:08.421Z,91.33
2022-11-12T01:42:12.960Z,91.48
2022-11-12T01:47:22.329Z,91.37
2022-11-12T01:52:31.731Z,91.32
2022-11-12T01:57:38.156Z,91.34
2022-11-12T02:02:47.158Z,91.53
2022-11-12T02:07:52.417Z,91.84
2022-11-12T02:13:15.988Z,91.93
2022-11-12T02:18:20.088Z,91.88
2022-11-12T02:23:23.692Z,91.73
2022-11-12T02:28:28.751Z,92.01
2022-11-12T02:33:32.905Z,92.06
2022-11-12T02:38:36.523Z,92.14
2022-11-12T02:43:40.615Z,92.25
2022-11-12T02:48:45.067Z,92.63
2022-11-12T02:53:48.788Z,92.59
2022-11-12T02:58:52.525Z,92.63
2022-11-12T03:03:56.347Z,92.90
2022-11-12T03:09:00.354Z,92.83
2022-11-12T03:14:04.091Z,93.14
2022-11-12T03:19:08.863Z,93.66
2022-11-12T03:24:12.722Z,94.06
2022-11-12T03:29:16.675Z,94.03
2022-11-12T03:34:20.295Z,94.10
2022-11-12T03:39:24.376Z,94.20
2022-11-12T03:44:28.319Z,94.32
2022-11-12T03:49:31.869Z,94.62
2022-11-12T03:54:35.484Z,94.52
2022-11-12T03:59:39.061Z,94.55
2022-11-12T04:05:00.740Z,95.01
2022-11-12T04:10:05.624Z,95.33
2022-11-12T04:15:10.759Z,94.84
2022-11-12T04:20:32.899Z,94.11
2022-11-12T04:26:00.360Z,93.20
2022-11-12T04:31:04.090Z,93.82
2022-11-12T04:36:07.803Z,93.41
2022-11-12T04:41:43.821Z,93.11
2022-11-12T04:46:47.193Z,93.16
2022-11-12T04:52:05.856Z,92.97
2022-11-12T05:00:39.077Z,93.57
2022-11-12T05:05:44.943Z,93.16
2022-11-12T05:10:52.138Z,93.13
2022-11-12T05:16:00.110Z,93.44
2022-11-12T05:21:21.493Z,92.99
2022-11-12T05:26:29.526Z,93.65
2022-11-12T05:31:37.456Z,94.18
2022-11-12T05:36:46.580Z,94.26
2022-11-12T05:42:11.787Z,94.24
2022-11-12T05:47:19.457Z,94.33
2022-11-12T05:52:24.873Z,94.27
2022-11-12T05:57:32.065Z,94.10
2022-11-12T06:02:37.523Z,94.49
2022-11-12T06:07:44.781Z,94.08
2022-11-12T06:12:52.247Z,94.63
2022-11-12T06:17:59.329Z,95.10
2022-11-12T06:23:06.999Z,94.87
2022-11-12T06:28:14.154Z,95.00
2022-11-12T06:33:19.596Z,95.91
2022-11-12T06:38:26.774Z,95.74
2022-11-12T06:43:36.189Z,96.26
2022-11-12T06:48:43.860Z,96.40
2022-11-12T06:53:52.048Z,96.85
2022-11-12T06:58:59.377Z,97.33
2022-11-12T07:04:07.234Z,97.76
2022-11-12T07:09:14.494Z,98.07
2022-11-12T07:17:17.734Z,99.02
2022-11-12T07:22:25.140Z,99.80
2022-11-12T07:27:33.489Z,99.50
2022-11-12T07:32:44.993Z,99.38
2022-11-12T07:37:59.409Z,99.49
2022-11-12T07:43:06.663Z,99.56
2022-11-12T07:48:13.829Z,99.62
2022-11-12T07:53:19.346Z,99.66
2022-11-12T07:58:27.275Z,99.11
2022-11-12T08:03:35.274Z,98.82
2022-11-12T08:08:42.652Z,97.89
2022-11-12T08:13:51.715Z,97.79
2022-11-12T08:18:58.962Z,97.19
2022-11-12T08:24:06.561Z,96.66
2022-11-12T08:29:13.673Z,95.85
2022-11-12T08:34:22.660Z,95.29
2022-11-12T08:39:30.355Z,94.33
2022-11-12T08:44:37.459Z,93.82
2022-11-12T08:49:48.028Z,92.48
2022-11-12T08:54:55.385Z,92.21
2022-11-12T09:00:03.832Z,90.51
2022-11-12T09:05:11.941Z,89.28
2022-11-12T09:10:19.538Z,88.45
2022-11-12T09:15:37.479Z,88.30
2022-11-12T09:20:45.545Z,87.23
2022-11-12T09:25:52.548Z,87.03
2022-11-12T09:30:58.113Z,86.92
2022-11-12T09:36:06.121Z,85.70
2022-11-12T09:41:28.528Z,83.92
2022-11-12T09:46:41.629Z,84.06
2022-11-12T09:51:52.594Z,83.55
2022-11-12T09:59:13.158Z,83.06
2022-11-12T10:04:40.968Z,82.39
2022-11-12T10:09:59.994Z,81.55
2022-11-12T10:15:58.488Z,80.30
2022-11-12T10:21:17.741Z,79.99
2022-11-12T10:26:28.324Z,79.56
2022-11-12T10:31:35.764Z,79.46
2022-11-12T10:36:45.480Z,78.44
2022-11-12T10:42:05.706Z,78.14
2022-11-12T10:57:21.191Z,74.47
2022-11-12T11:02:25.223Z,74.90
2022-11-12T11:07:29.436Z,74.21
2022-11-12T11:12:34.487Z,73.81
2022-11-12T11:17:38.318Z,73.09
2022-11-12T11:22:44.584Z,73.32
2022-11-12T11:28:00.510Z,73.30
2022-11-12T11:33:23.256Z,73.09
2022-11-12T11:38:41.110Z,72.06
2022-11-12T11:43:57.668Z,72.49
2022-11-12T11:49:26.229Z,72.69
2022-11-12T11:54:53.800Z,72.35
2022-11-12T12:00:10.719Z,71.44
2022-11-12T12:05:28.405Z,71.10
2022-11-12T12:11:06.951Z,70.39
2022-11-12T12:16:35.507Z,70.64
2022-11-12T12:21:44.341Z,71.11
2022-11-12T12:26:53.766Z,70.99
2022-11-12T12:32:05.631Z,70.29
2022-11-12T12:37:22.326Z,70.29
2022-11-12T12:42:29.553Z,70.82
2022-11-12T12:47:40.216Z,71.40
2022-11-12T12:53:06.137Z,69.71
2022-11-12T12:58:28.718Z,69.78
2022-11-12T13:03:57.795Z,70.13
2022-11-12T13:09:05.016Z,70.43
2022-11-12T13:14:51.848Z,70.98
2022-11-12T13:20:18.813Z,71.37
2022-11-12T13:25:28.373Z,70.68
2022-11-12T13:30:57.132Z,70.51
2022-11-12T13:36:26.086Z,70.23
2022-11-12T13:41:49.580Z,70.42
2022-11-12T13:46:55.389Z,71.01
2022-11-12T13:52:00.375Z,70.85
2022-11-12T13:57:28.528Z,71.04
2022-11-12T14:02:36.828Z,71.57
2022-11-12T14:07:53.184Z,71.28
2022-11-12T14:13:12.179Z,71.40
2022-11-12T14:18:23.227Z,71.79
2022-11-12T14:23:27.398Z,71.90
2022-11-12T14:28:34.193Z,71.89
2022-11-12T14:33:37.711Z,72.34
2022-11-12T14:38:44.831Z,72.59
2022-11-12T14:44:07.490Z,73.27
2022-11-12T14:49:21.041Z,73.47
2022-11-12T14:54:30.923Z,73.71
2022-11-12T14:59:35.925Z,73.90
2022-11-12T15:04:42.824Z,74.22
2022-11-12T15:09:45.859Z,74.53
2022-11-12T15:14:49.898Z,75.05
2022-11-12T15:19:53.611Z,75.33
2022-11-12T15:25:09.331Z,75.50
2022-11-12T15:30:19.475Z,75.58
2022-11-12T15:35:38.034Z,75.87
2022-11-12T15:40:44.489Z,75.74
2022-11-12T15:45:50.266Z,75.69
2022-11-12T15:50:55.300Z,76.10
2022-11-12T15:55:59.241Z,76.54
2022-11-12T16:01:03.370Z,76.60
2022-11-12T16:06:09.939Z,76.98
2022-11-12T16:11:28.303Z,77.20
2022-11-12T16:16:33.258Z,77.76
2022-11-12T16:21:36.841Z,77.83
2022-11-12T16:26:40.602Z,78.19
2022-11-12T16:31:44.848Z,78.71
2022-11-12T16:36:49.484Z,79.33
2022-11-12T16:41:53.241Z,80.27
2022-11-12T16:46:56.716Z,80.84
2022-11-12T16:52:00.298Z,81.10
2022-11-12T16:57:04.239Z,81.59
2022-11-12T17:02:14.156Z,82.26
2022-11-12T17:07:17.761Z,82.75
2022-11-12T17:12:21.517Z,83.04
2022-11-12T17:17:25.215Z,83.93
2022-11-12T17:22:29.776Z,84.05
2022-11-12T17:27:33.489Z,84.45
2022-11-12T17:32:37.074Z,84.60
2022-11-12T17:37:40.613Z,85.24
2022-11-12T17:42:44.362Z,85.38
2022-11-12T17:47:48.183Z,85.56
2022-11-12T17:52:51.683Z,85.79
2022-11-12T17:57:55.318Z,85.87
2022-11-12T18:02:59.414Z,85.88
2022-11-12T18:08:02.929Z,85.67
2022-11-12T18:13:06.486Z,85.47
2022-11-12T18:18:09.970Z,85.76
2022-11-12T18:23:13.669Z,85.93
2022-11-12T18:35:16.607Z,85.80
2022-11-12T18:40:21.478Z,86.16
2022-11-12T18:45:24.976Z,86.12
2022-11-12T18:50:28.870Z,86.41
2022-11-12T18:55:32.288Z,86.86
2022-11-12T19:00:36.353Z,87.12
2022-11-12T19:05:40.002Z,87.82
2022-11-12T19:10:43.884Z,88.38
2022-11-12T19:15:47.717Z,88.55
2022-11-12T19:20:51.919Z,88.82
2022-11-12T19:25:55.400Z,89.04
2022-11-12T19:31:02.958Z,89.21
2022-11-12T19:36:10.275Z,88.97
2022-11-12T19:41:19.646Z,89.06
2022-11-12T19:46:24.851Z,89.03
2022-11-12T19:51:30.407Z,89.20
2022-11-12T19:56:34.585Z,89.30
2022-11-12T20:01:38.139Z,89.09
2022-11-12T20:06:42.110Z,89.07
2022-11-12T20:11:45.797Z,89.02
2022-11-12T20:16:51.099Z,89.10
2022-11-12T20:21:54.561Z,88.98
2022-11-12T20:26:58.358Z,88.70
2022-11-12T20:32:02.336Z,88.73
2022-11-12T20:37:05.926Z,88.93
2022-11-12T20:42:09.594Z,88.97
2022-11-12T20:47:13.363Z,88.96
2022-11-12T20:52:16.877Z,88.77
2022-11-12T20:57:20.502Z,88.89
2022-11-12T21:02:24.524Z,89.19
2022-11-12T21:07:28.679Z,88.92
2022-11-12T21:12:32.684Z,88.86
2022-11-12T21:17:36.286Z,89.06
2022-11-12T21:22:39.945Z,88.86
2022-11-12T21:27:44.091Z,89.07
2022-11-12T21:32:47.638Z,89.14
2022-11-12T21:37:50.992Z,89.36
2022-11-12T21:42:54.582Z,89.06
2022-11-12T21:47:58.285Z,89.29
2022-11-12T21:53:01.846Z,89.10
2022-11-12T21:58:05.488Z,89.22
2022-11-12T22:03:08.933Z,89.22
2022-11-12T22:08:12.448Z,89.28
2022-11-12T22:13:31.521Z,89.41
2022-11-12T22:18:35.850Z,89.41
2022-11-12T22:23:39.994Z,89.42
2022-11-12T22:28:44.275Z,89.57
2022-11-12T22:33:48.343Z,89.77
2022-11-12T22:38:53.148Z,89.73
2022-11-12T22:43:58.462Z,89.90
2022-11-12T22:49:02.616Z,89.95
2022-11-12T22:54:08.806Z,89.83
2022-11-12T22:59:12.767Z,89.74
2022-11-12T23:04:16.282Z,89.88
2022-11-12T23:09:19.801Z,90.04
2022-11-12T23:14:23.778Z,89.61
2022-11-12T23:19:27.648Z,89.48
2022-11-12T23:24:31.258Z,89.52
2022-11-12T23:29:34.924Z,89.48
2022-11-12T23:34:38.430Z,89.54
2022-11-12T23:39:42.224Z,89.28
2022-11-12T23:44:46.045Z,89.42
2022-11-12T23:49:49.777Z,89.38
2022-11-12T23:54:53.305Z,89.16
2022-11-12T23:59:56.766Z,89.24
